首页
METAR-TAF:

METAR-TAF

机场 :

奥格登, 犹他州, 美国

纬度: 41-07N, 经度: 111-58W, 海拔: 1459米

当前天气观测

该预报发布于26分钟前的23:55 UTC
风速5节,风向西
温度 34°C
湿度 13%
气压 1014 hPa
能見度: 16.1公里
散云层高于17000英尺

METAR: KHIF 122355Z 28005KT 10SM SCT170 34/02 A2994 RMK AO2A SLP071 T03400017 10340 20282 57019

时间: 18:21 (00:21 UTC)

预报

该预报发布于3小时和21分钟前的21:00 UTC
预报有效从12日的 21点(UTC)到 14日的 03点(UTC)
风速12节,风向西南
能见度10公里或以上
天空无云
成为
从 13日的 00点(UTC)到 13日的 01点(UTC)
风速12节,风向东转东北,有时为18节阵风
能见度10公里或以上
少量云层高于15000英尺
成为
从 13日的 03点(UTC)到 13日的 04点(UTC)
风速12节,风向东转东南
能见度10公里或以上
少量云层高于15000英尺
成为
从 13日的 18点(UTC)到 13日的 19点(UTC)
风速12节,风向西转西南
能见度10公里或以上
少量云层高于15000英尺

TAF: KHIF 122100Z 1221/1403 22012KT 9999 SKC QNH2995INS BECMG 1300/1301 06012G18KT 9999 FEW150 QNH2991INS BECMG 1303/1304 11012KT 9999 FEW150 QNH2992INS BECMG 1318/1319 25012KT 9999 FEW150 QNH2992INS TX33/1223Z TN17/1313Z

超过4000个机场的气象观测和天气预报(METAR&TAF报告)。

可查询的气象台以黄色和红色小点在地图上表示。

将鼠标移到小点上方,可查看气象台名称。

然后点击查看天气观测和预报。

如需切换地图:点击带黑十字的绿色按钮放大地图;点击带横线的绿色按钮缩小地图;或者点击绿色箭头查看邻近地区的地图。


METAR-TAF: